메인 페이지
METAR-TAF:

METAR-TAF

공항 :

포트워스, 텍사스, 미국

위도: 32-58-24N, 경도: 097-19-05W, 고도: 220m

현재 날씨관측

예보는 52분 전, 04:53시(UTC)에 발표되었습니다.
남남동20kt, 순간 최대 풍속 29kt
온도 30°C
습도 59%
기압 1010 hPa
시정: 16.1km
고도 25000ft 상공 구름 조금

METAR: KAFW 250453Z 16020G29KT 10SM FEW250 30/21 A2983 RMK AO2 PK WND 16031/0436 SLP081 T03000211 $

시각: 00:45 (05:45 UTC)

예보

예보는 25분 전, 05:20시(UTC)에 발표되었습니다.
예보 대상 시간: 25일 06시부터 26일 06시까지 (UTC)
남남동18kt, 순간 최대 풍속 28kt
시정: 10km
고도 25000ft 상공 구름 많음
25일 1100시부터 (UTC)
16kt
시정: 10km
고도 2200ft 상공 구름 많음
25일 1600시부터 (UTC)
19kt
시정: 10km
고도 3500ft 상공 구름 보통

TAF: KAFW 250520Z 2506/2606 16018G28KT P6SM BKN250 FM251100 18016KT P6SM BKN022 FM251600 18019KT P6SM SCT035

4,000개 이상의 공항 관측 자료 및 예보 (METAR 및 TAF 보고).

지도상에서 검색 가능한 기상관측소가 노란 점과 빨간 점으로 표시되어 있습니다.

기상관측소 명을 보려면 표시 위로 마우스를 이동하세요.

날씨 관측과 예보를 보려면 클릭하세요.

지도 변경 : 확대하려면 엑스 표시가 있는 녹색 버튼, 축소하려면 빼기 표시가 있는 녹색 버튼, 다음 페이지의 지도를 보려면 녹색 화살표를 클릭하세요.


METAR-TAF: